Time;durP1;ratioP1;P1;durP2;ratioP2;P2;SDS_P1;SDS_P2;PMS_P1;PMS_P2;Temp;Humidity;BMP_temperature;BMP_pressure;BME280_temperature;BME280_humidity;BME280_pressure;Samples;Min_cycle;Max_cycle;Signal;HPM_P1;HPM_P2
2022/01/28 00:00:07;;;;;;;18.95;12.50;;;;;;;5.30;100.00;100773.28;4956294;29;20212;-80
2022/01/28 00:02:49;;;;;;;17.48;12.02;;;;;;;5.33;100.00;100782.09;4955752;29;20196;-80
2022/01/28 00:05:19;;;;;;;19.88;13.48;;;;;;;5.13;100.00;100782.47;4955290;29;20201;-80
2022/01/28 00:07:46;;;;;;;19.02;13.73;;;;;;;5.16;100.00;100784.19;4954945;28;20193;-80
2022/01/28 00:10:13;;;;;;;18.25;12.40;;;;;;;5.21;100.00;100783.19;4954989;29;20288;-81
2022/01/28 00:12:55;;;;;;;17.08;11.85;;;;;;;4.92;100.00;100782.78;4955677;29;20698;-79
2022/01/28 00:15:29;;;;;;;19.17;12.18;;;;;;;4.91;100.00;100773.03;4955501;28;20232;-79
2022/01/28 00:18:27;;;;;;;21.08;13.88;;;;;;;4.88;100.00;100776.63;4955055;29;20223;-80
2022/01/28 00:37:48;;;;;;;19.58;11.82;;;;;;;4.64;100.00;100783.22;4955138;29;20289;-78
2022/01/28 00:40:13;;;;;;;17.92;11.50;;;;;;;4.54;100.00;100779.78;4954775;28;20650;-80
2022/01/28 00:42:39;;;;;;;18.50;12.95;;;;;;;4.50;100.00;100786.09;4955714;29;20214;-79
2022/01/28 00:45:07;;;;;;;22.02;14.23;;;;;;;4.39;100.00;100794.25;4955493;29;20294;-78
2022/01/28 00:47:34;;;;;;;24.77;13.70;;;;;;;4.42;100.00;100787.13;4955412;29;20276;-79
2022/01/28 00:50:01;;;;;;;20.05;12.85;;;;;;;4.38;100.00;100789.78;4955506;29;20204;-78
2022/01/28 00:52:28;;;;;;;23.95;14.25;;;;;;;4.39;100.00;100796.91;4955634;29;20644;-80
2022/01/28 00:54:55;;;;;;;19.50;13.75;;;;;;;4.34;100.00;100795.19;4954713;29;20204;-80
2022/01/28 00:57:21;;;;;;;24.70;13.93;;;;;;;4.37;100.00;100798.72;4954607;29;20230;-79
2022/01/28 00:59:48;;;;;;;21.55;13.82;;;;;;;4.35;100.00;100786.31;4955143;29;20626;-78
2022/01/28 01:02:15;;;;;;;23.83;15.80;;;;;;;4.36;100.00;100802.31;4955144;29;20292;-79
2022/01/28 01:04:43;;;;;;;27.50;15.68;;;;;;;4.41;100.00;100806.66;4955315;29;20670;-79
2022/01/28 01:07:09;;;;;;;24.98;15.10;;;;;;;4.39;100.00;100815.59;4955249;29;20181;-79
2022/01/28 01:09:36;;;;;;;23.65;14.60;;;;;;;4.52;100.00;100815.41;4955205;29;20207;-80
2022/01/28 01:12:04;;;;;;;24.27;15.15;;;;;;;4.65;100.00;100825.00;4955149;29;20228;-80
2022/01/28 01:14:31;;;;;;;25.27;14.57;;;;;;;4.65;100.00;100840.13;4955027;29;20185;-79
2022/01/28 01:17:09;;;;;;;23.55;14.93;;;;;;;4.66;100.00;100834.78;4945367;29;20225;-78
2022/01/28 01:19:40;;;;;;;26.48;14.45;;;;;;;4.60;100.00;100845.53;4942955;29;20225;-79
2022/01/28 01:22:09;;;;;;;26.33;14.55;;;;;;;4.61;100.00;100855.28;4950546;29;20263;-79
2022/01/28 01:24:47;;;;;;;23.15;14.98;;;;;;;4.62;100.00;100857.06;4950531;29;20189;-79
2022/01/28 01:27:15;;;;;;;26.23;16.35;;;;;;;4.41;100.00;100870.66;4947443;29;20192;-79
2022/01/28 01:29:43;;;;;;;25.48;16.25;;;;;;;4.52;100.00;100866.09;4954000;29;20234;-79
2022/01/28 01:32:14;;;;;;;24.85;15.18;;;;;;;4.52;100.00;100874.09;4950316;29;20649;-79
2022/01/28 01:34:41;;;;;;;25.02;14.80;;;;;;;4.44;100.00;100881.31;4951014;29;20229;-79
2022/01/28 01:37:12;;;;;;;26.63;15.90;;;;;;;4.70;100.00;100876.50;4957391;29;20318;-79
2022/01/28 01:39:41;;;;;;;26.83;16.58;;;;;;;4.44;100.00;100881.31;4950024;29;20204;-80
2022/01/28 01:42:17;;;;;;;25.65;16.45;;;;;;;4.58;100.00;100896.22;4951577;29;20208;-80
2022/01/28 01:53:04;;;;;;;26.98;15.40;;;;;;;4.51;100.00;100915.00;4968935;28;20261;-79
2022/01/28 01:55:31;;;;;;;31.90;16.33;;;;;;;4.67;100.00;100913.91;4954097;28;20625;-79
2022/01/28 01:57:58;;;;;;;28.88;16.70;;;;;;;4.53;100.00;100906.09;4947359;29;20690;-79
2022/01/28 02:00:25;;;;;;;31.98;16.13;;;;;;;4.48;100.00;100913.28;4944625;29;20206;-79
2022/01/28 02:02:51;;;;;;;25.33;16.08;;;;;;;4.65;100.00;100898.84;4950000;29;20203;-79
2022/01/28 02:05:18;;;;;;;28.85;16.65;;;;;;;4.52;100.00;100898.09;4951837;29;20667;-79
2022/01/28 02:07:46;;;;;;;28.10;16.10;;;;;;;4.61;100.00;100903.31;4953926;29;20282;-79
2022/01/28 02:10:14;;;;;;;29.88;16.33;;;;;;;4.72;100.00;100889.84;4943663;29;20230;-79
2022/01/28 02:12:45;;;;;;;32.38;17.25;;;;;;;4.56;100.00;100889.16;4948792;29;20288;-79
2022/01/28 02:15:12;;;;;;;30.05;17.88;;;;;;;4.46;100.00;100895.53;4943470;29;20192;-79
2022/01/28 02:17:38;;;;;;;29.90;16.05;;;;;;;4.52;100.00;100903.44;4949304;29;20221;-79
2022/01/28 02:20:09;;;;;;;28.25;16.15;;;;;;;4.42;100.00;100901.78;4946614;29;20596;-79
2022/01/28 02:22:37;;;;;;;31.45;17.40;;;;;;;4.49;100.00;100909.69;4949099;29;20675;-80
2022/01/28 02:25:04;;;;;;;30.48;16.17;;;;;;;4.62;100.00;100917.56;4953130;29;20193;-79
2022/01/28 02:27:31;;;;;;;35.05;18.02;;;;;;;4.54;100.00;100910.50;4945872;29;20203;-79
2022/01/28 02:29:58;;;;;;;28.95;16.40;;;;;;;4.53;100.00;100907.88;4942241;29;20197;-79
2022/01/28 02:32:24;;;;;;;31.13;17.08;;;;;;;4.59;100.00;100908.69;4948936;28;20658;-79
2022/01/28 02:34:51;;;;;;;33.65;17.30;;;;;;;4.57;100.00;100907.81;4953592;29;20762;-79
2022/01/28 02:37:17;;;;;;;33.28;16.92;;;;;;;4.42;100.00;100897.34;4945691;29;20736;-79
2022/01/28 02:39:45;;;;;;;33.20;17.60;;;;;;;4.51;100.00;100901.69;4951158;29;20193;-79
2022/01/28 02:42:20;;;;;;;33.13;17.73;;;;;;;4.54;100.00;100909.63;4949455;29;20282;-79
2022/01/28 02:44:50;;;;;;;34.60;18.60;;;;;;;4.58;100.00;100908.69;4948648;29;20242;-79
2022/01/28 02:47:29;;;;;;;33.72;17.63;;;;;;;4.72;100.00;100922.72;4942707;29;20640;-79
2022/01/28 02:49:56;;;;;;;30.75;17.50;;;;;;;4.67;100.00;100924.59;4944746;29;20699;-79
2022/01/28 02:52:32;;;;;;;31.92;17.13;;;;;;;4.70;100.00;100923.66;4945522;29;20194;-79
2022/01/28 02:55:00;;;;;;;31.90;17.35;;;;;;;4.71;100.00;100917.44;4943321;29;20199;-79
2022/01/28 02:57:27;;;;;;;33.13;16.88;;;;;;;4.67;100.00;100919.25;4951283;29;20582;-79
2022/01/28 02:59:54;;;;;;;28.33;17.05;;;;;;;4.65;100.00;100904.16;4961970;28;20203;-78
2022/01/28 03:02:21;;;;;;;32.08;18.23;;;;;;;4.66;100.00;100914.81;4951952;29;20278;-78
2022/01/28 03:05:07;;;;;;;30.23;17.92;;;;;;;4.75;100.00;100912.03;4938296;29;20198;-78
2022/01/28 03:07:34;;;;;;;33.03;18.00;;;;;;;4.49;100.00;100906.16;4952835;29;20203;-78
2022/01/28 03:10:31;;;;;;;32.50;18.40;;;;;;;4.61;100.00;100913.97;4945570;29;20292;-78
2022/01/28 03:13:17;;;;;;;29.17;16.45;;;;;;;4.71;100.00;100904.09;4949386;29;20649;-78
2022/01/28 03:15:51;;;;;;;30.20;16.25;;;;;;;4.65;100.00;100915.72;4954626;29;20201;-78
2022/01/28 03:18:21;;;;;;;33.50;17.83;;;;;;;4.76;100.00;100916.47;4948069;29;20209;-78
2022/01/28 03:20:59;;;;;;;28.55;17.10;;;;;;;4.56;100.00;100927.38;4948739;29;20279;-78
2022/01/28 03:23:27;;;;;;;34.45;16.95;;;;;;;4.66;100.00;100916.59;4946618;29;20200;-79
2022/01/28 03:25:55;;;;;;;34.80;18.05;;;;;;;4.58;100.00;100925.56;4953557;29;20554;-79
2022/01/28 03:28:21;;;;;;;33.35;16.50;;;;;;;4.60;100.00;100929.09;4940396;29;20204;-79
2022/01/28 03:30:48;;;;;;;40.00;20.13;;;;;;;4.70;100.00;100940.53;4943834;29;20584;-78
2022/01/28 03:33:15;;;;;;;40.65;19.48;;;;;;;4.49;100.00;100939.03;4941040;29;20632;-78
2022/01/28 03:35:42;;;;;;;34.47;17.50;;;;;;;4.42;100.00;100948.00;4945308;29;20610;-79
2022/01/28 03:38:12;;;;;;;31.50;16.33;;;;;;;4.44;100.00;100946.22;4952306;29;20218;-78
2022/01/28 03:40:41;;;;;;;36.60;18.70;;;;;;;4.43;100.00;100952.44;4950363;29;20201;-78
2022/01/28 03:43:09;;;;;;;37.35;17.15;;;;;;;4.47;100.00;100956.84;4944006;28;20199;-78
2022/01/28 03:45:36;;;;;;;39.55;19.25;;;;;;;4.43;100.00;100951.56;4954181;29;20266;-78
2022/01/28 03:48:03;;;;;;;44.72;20.30;;;;;;;4.39;100.00;100946.25;4947203;29;20536;-78
2022/01/28 03:50:32;;;;;;;33.20;17.73;;;;;;;4.47;100.00;100937.28;4955557;29;20292;-79
2022/01/28 03:53:00;;;;;;;40.88;20.13;;;;;;;4.42;100.00;100940.00;4948795;29;20203;-78
2022/01/28 03:55:26;;;;;;;39.20;18.63;;;;;;;4.42;100.00;100936.47;4947206;29;20591;-79
2022/01/28 03:57:53;;;;;;;35.67;19.05;;;;;;;4.35;100.00;100936.53;4947914;29;20208;-79
2022/01/28 04:00:25;;;;;;;34.78;19.58;;;;;;;4.49;100.00;100939.03;4945174;29;20715;-77
2022/01/28 04:03:01;;;;;;;39.22;18.90;;;;;;;4.58;100.00;100946.03;4950352;29;20193;-78
2022/01/28 04:06:14;;;;;;;36.90;19.65;;;;;;;4.54;100.00;100949.63;4947696;29;20276;-77
2022/01/28 04:11:29;;;;;;;37.20;19.13;;;;;;;4.59;100.00;100963.84;4947111;29;20340;-79
2022/01/28 04:13:59;;;;;;;38.95;21.15;;;;;;;4.67;100.00;100958.41;4949936;29;20196;-79
2022/01/28 04:17:17;;;;;;;34.38;19.58;;;;;;;4.91;100.00;100965.22;4947355;29;20191;-77
2022/01/28 04:19:18;;;;;;;36.55;17.17;;;;;;;4.91;100.00;100965.22;4951600;29;20629;-79
2022/01/28 04:21:44;;;;;;;32.33;18.73;;;;;;;4.79;100.00;100972.47;4944215;29;20201;-80
2022/01/28 04:24:11;;;;;;;36.08;19.48;;;;;;;4.79;100.00;100963.56;4945664;29;20202;-79
2022/01/28 04:26:37;;;;;;;31.25;17.50;;;;;;;4.79;100.00;100967.16;4947460;29;20581;-79
2022/01/28 04:29:04;;;;;;;39.95;18.88;;;;;;;4.87;100.00;100958.16;4939880;29;20618;-79
2022/01/28 04:31:32;;;;;;;29.70;18.00;;;;;;;5.05;100.00;100955.22;4944287;29;20197;-79
2022/01/28 04:34:00;;;;;;;34.00;18.33;;;;;;;5.05;100.00;100954.34;4957082;28;20184;-78
2022/01/28 04:36:30;;;;;;;32.28;18.08;;;;;;;5.20;100.00;100971.03;4925354;29;20209;-79
2022/01/28 04:39:03;;;;;;;32.20;16.90;;;;;;;5.01;100.00;100977.53;4908732;29;20615;-78
2022/01/28 04:41:38;;;;;;;28.90;16.45;;;;;;;4.97;100.00;100981.13;4909118;29;20191;-78
2022/01/28 04:44:12;;;;;;;30.27;17.45;;;;;;;4.90;100.00;100984.78;4913660;29;20252;-79
2022/01/28 04:46:46;;;;;;;30.65;17.60;;;;;;;4.89;100.00;100985.72;4906099;29;20194;-79
2022/01/28 04:49:18;;;;;;;36.33;19.05;;;;;;;4.94;100.00;100990.06;4913438;29;20218;-79
2022/01/28 04:51:56;;;;;;;29.65;17.30;;;;;;;4.85;100.00;100998.19;4912767;29;20190;-78
2022/01/28 04:54:48;;;;;;;34.30;17.15;;;;;;;4.58;100.00;101018.94;4903816;29;20189;-78
2022/01/28 04:57:25;;;;;;;29.13;16.30;;;;;;;4.60;100.00;101018.94;4902754;29;20197;-80
2022/01/28 05:00:03;;;;;;;34.50;18.38;;;;;;;4.64;100.00;101010.00;4911765;29;20197;-79
2022/01/28 05:05:42;;;;;;;30.52;16.58;;;;;;;4.68;100.00;101025.09;4906989;29;20201;-78
2022/01/28 05:08:32;;;;;;;27.60;15.40;;;;;;;4.67;100.00;101017.97;4912692;29;20218;-79
2022/01/28 05:11:24;;;;;;;28.08;16.05;;;;;;;4.87;100.00;101015.06;4913367;29;20636;-78
2022/01/28 05:16:54;;;;;;;31.85;17.58;;;;;;;4.72;100.00;101024.13;4912845;29;20200;-78
2022/01/28 05:25:30;;;;;;;31.13;17.58;;;;;;;4.80;100.00;101016.94;4917813;29;20204;-79
2022/01/28 05:27:51;;;;;;;31.52;17.92;;;;;;;4.75;100.00;101013.44;4910047;29;20207;-78
2022/01/28 05:30:17;;;;;;;33.60;16.83;;;;;;;4.72;100.00;101028.59;4911016;29;20201;-79
2022/01/28 05:32:44;;;;;;;29.83;16.70;;;;;;;4.86;100.00;101017.75;4915411;29;20198;-78
2022/01/28 05:35:12;;;;;;;31.85;18.75;;;;;;;4.93;100.00;101022.09;4927598;29;20765;-78
2022/01/28 05:37:39;;;;;;;33.22;17.45;;;;;;;4.92;100.00;101036.38;4954386;29;20537;-79
2022/01/28 05:40:06;;;;;;;29.02;18.65;;;;;;;5.02;100.00;101024.69;4947211;29;20193;-79
2022/01/28 05:42:34;;;;;;;38.63;20.48;;;;;;;5.18;100.00;101028.94;4946602;29;20193;-79
2022/01/28 05:45:01;;;;;;;29.55;16.83;;;;;;;5.03;100.00;101029.13;4951356;29;20284;-79
2022/01/28 05:47:28;;;;;;;27.92;16.10;;;;;;;5.23;100.00;101034.22;4957906;29;20284;-79
2022/01/28 05:49:54;;;;;;;29.88;19.20;;;;;;;5.30;100.00;101032.34;4942950;29;20197;-79
2022/01/28 05:52:22;;;;;;;29.73;17.88;;;;;;;5.34;100.00;101029.59;4953403;29;20215;-79
2022/01/28 05:54:49;;;;;;;30.60;16.52;;;;;;;5.38;100.00;101038.44;4950056;29;20401;-80
2022/01/28 05:57:15;;;;;;;27.45;16.02;;;;;;;5.18;100.00;101038.72;4954595;29;20632;-78
2022/01/28 05:59:42;;;;;;;26.42;17.63;;;;;;;5.25;100.00;101040.41;4947472;29;20220;-78
2022/01/28 06:02:09;;;;;;;26.70;17.40;;;;;;;5.19;100.00;101049.38;4947307;29;20650;-78
2022/01/28 06:04:37;;;;;;;26.88;15.65;;;;;;;5.19;100.00;101041.34;4948731;29;20201;-78
2022/01/28 06:07:04;;;;;;;27.52;15.85;;;;;;;5.26;100.00;101046.63;4945242;29;20209;-77
2022/01/28 06:09:32;;;;;;;28.15;16.75;;;;;;;5.11;100.00;101043.28;4947830;29;20197;-77
2022/01/28 06:11:58;;;;;;;33.83;17.23;;;;;;;5.07;100.00;101052.22;4951912;28;20194;-79
2022/01/28 06:14:25;;;;;;;25.65;16.58;;;;;;;5.07;100.00;101054.88;4953802;29;20287;-80
2022/01/28 06:16:52;;;;;;;27.80;16.48;;;;;;;5.00;100.00;101048.72;4947848;29;20275;-78
2022/01/28 06:19:18;;;;;;;33.05;17.17;;;;;;;4.99;100.00;101046.06;4945470;29;20228;-78
2022/01/28 06:21:45;;;;;;;28.58;17.52;;;;;;;5.04;100.00;101043.34;4952713;29;20201;-78
2022/01/28 06:24:12;;;;;;;26.23;14.82;;;;;;;5.14;100.00;101045.88;4947059;29;20680;-78
2022/01/28 06:26:40;;;;;;;32.03;16.40;;;;;;;5.30;100.00;101041.22;4949357;29;20633;-78
2022/01/28 06:29:07;;;;;;;22.13;15.02;;;;;;;5.30;100.00;101059.91;4945840;29;20198;-78
2022/01/28 06:31:33;;;;;;;29.60;16.08;;;;;;;5.25;100.00;101060.91;4948267;28;20203;-79
2022/01/28 06:34:00;;;;;;;27.85;16.15;;;;;;;5.26;100.00;101073.34;4943771;29;20230;-76
2022/01/28 06:36:27;;;;;;;32.63;17.25;;;;;;;5.27;100.00;101081.34;4950871;29;20218;-76
2022/01/28 06:38:53;;;;;;;27.63;16.83;;;;;;;5.14;100.00;101079.72;4945462;29;20212;-79
2022/01/28 06:41:20;;;;;;;29.83;16.85;;;;;;;5.22;100.00;101069.81;4942777;29;20247;-77
2022/01/28 06:43:48;;;;;;;26.40;16.17;;;;;;;5.37;100.00;101071.41;4949014;29;20283;-78
2022/01/28 06:46:14;;;;;;;24.45;14.82;;;;;;;5.37;100.00;101072.28;4948802;29;20208;-78
2022/01/28 06:48:41;;;;;;;23.80;14.40;;;;;;;5.55;100.00;101072.94;4945875;29;20628;-78
2022/01/28 06:51:08;;;;;;;32.97;15.85;;;;;;;5.51;100.00;101079.25;4945874;29;20770;-77
2022/01/28 06:53:35;;;;;;;26.73;15.50;;;;;;;5.40;100.00;101087.38;4954571;29;20289;-79
2022/01/28 06:56:01;;;;;;;27.38;16.48;;;;;;;5.49;100.00;101091.72;4944110;29;20235;-79
2022/01/28 06:58:28;;;;;;;25.95;15.27;;;;;;;5.49;100.00;101091.72;4950965;28;20647;-80
2022/01/28 07:00:56;;;;;;;27.08;17.00;;;;;;;5.46;100.00;101086.44;4947941;29;20279;-80
2022/01/28 07:03:22;;;;;;;23.33;14.25;;;;;;;5.34;100.00;101092.84;4955329;28;20196;-79
2022/01/28 07:05:49;;;;;;;25.58;14.90;;;;;;;5.30;100.00;101108.00;4942924;29;20189;-80
2022/01/28 07:08:15;;;;;;;28.27;15.70;;;;;;;5.28;100.00;101104.47;4950684;29;20204;-79
2022/01/28 07:10:42;;;;;;;34.00;17.38;;;;;;;5.25;100.00;101111.66;4951311;29;20555;-77
2022/01/28 07:13:09;;;;;;;22.40;14.02;;;;;;;5.10;100.00;101116.25;4953225;29;20208;-78
2022/01/28 07:15:35;;;;;;;23.95;14.88;;;;;;;5.13;100.00;101126.91;4949694;29;20635;-78
2022/01/28 07:18:05;;;;;;;27.70;16.30;;;;;;;5.14;100.00;101133.13;4952337;28;20283;-80
2022/01/28 07:20:33;;;;;;;31.55;15.52;;;;;;;5.43;100.00;101135.47;4949891;29;20194;-78
2022/01/28 07:23:00;;;;;;;37.17;18.27;;;;;;;5.31;100.00;101146.28;4951094;28;20201;-77
2022/01/28 07:25:27;;;;;;;28.52;15.82;;;;;;;5.16;100.00;101144.69;4951467;29;20200;-77
2022/01/28 07:27:54;;;;;;;28.73;17.30;;;;;;;5.12;100.00;101150.94;4951877;29;20197;-78
2022/01/28 07:30:20;;;;;;;25.50;15.45;;;;;;;5.12;100.00;101151.81;4950802;29;20224;-79
2022/01/28 07:32:49;;;;;;;26.65;16.40;;;;;;;4.99;100.00;101166.22;4955034;28;20610;-78
2022/01/28 07:35:17;;;;;;;22.90;14.63;;;;;;;4.92;100.00;101184.06;4953958;29;20244;-78
2022/01/28 07:37:44;;;;;;;32.65;16.35;;;;;;;5.04;100.00;101180.38;4953486;29;20243;-78
2022/01/28 07:40:12;;;;;;;30.83;16.60;;;;;;;5.04;100.00;101177.72;4949321;29;20709;-78
2022/01/28 07:42:39;;;;;;;25.67;16.48;;;;;;;5.18;100.00;101190.94;4951939;29;20284;-80
2022/01/28 07:45:07;;;;;;;34.25;17.38;;;;;;;5.13;100.00;101195.44;4952558;29;20344;-77
2022/01/28 07:47:36;;;;;;;29.63;16.45;;;;;;;4.99;100.00;101195.56;4947298;29;20703;-76
2022/01/28 07:50:03;;;;;;;28.90;16.00;;;;;;;5.03;100.00;101204.44;4949044;28;20196;-78
2022/01/28 07:52:31;;;;;;;29.40;16.23;;;;;;;4.96;100.00;101199.16;4949126;29;20189;-78
2022/01/28 07:54:58;;;;;;;26.33;16.35;;;;;;;4.88;100.00;101202.78;4953366;29;20207;-78
2022/01/28 07:57:24;;;;;;;31.17;16.60;;;;;;;5.05;100.00;101202.66;4950236;29;20280;-76
2022/01/28 07:59:51;;;;;;;27.05;15.10;;;;;;;4.93;100.00;101201.88;4949852;29;20228;-79
2022/01/28 08:02:18;;;;;;;29.88;16.58;;;;;;;4.95;100.00;101208.09;4952207;29;20207;-77
2022/01/28 08:04:44;;;;;;;30.63;17.08;;;;;;;5.23;100.00;101208.69;4948331;29;20224;-77
2022/01/28 08:07:11;;;;;;;30.80;15.85;;;;;;;5.22;100.00;101211.34;4950865;29;20206;-79
2022/01/28 08:09:39;;;;;;;28.73;16.80;;;;;;;4.94;100.00;101210.75;4946900;29;20650;-79
2022/01/28 08:12:06;;;;;;;31.85;16.35;;;;;;;4.85;100.00;101213.50;4949006;29;20210;-79
2022/01/28 08:14:33;;;;;;;28.70;15.50;;;;;;;5.01;100.00;101218.69;4951907;29;20200;-78
2022/01/28 08:17:00;;;;;;;25.10;14.57;;;;;;;5.37;100.00;101224.56;4951071;29;20276;-78
2022/01/28 08:19:27;;;;;;;25.83;15.25;;;;;;;5.42;100.00;101229.84;4944572;29;20253;-78
2022/01/28 08:21:53;;;;;;;27.10;16.00;;;;;;;5.43;100.00;101237.84;4953437;29;20649;-79
2022/01/28 08:24:20;;;;;;;27.67;15.38;;;;;;;5.49;100.00;101236.88;4953117;29;20646;-78
2022/01/28 08:26:49;;;;;;;25.02;15.13;;;;;;;5.37;100.00;101242.38;4952043;29;20319;-79
2022/01/28 08:29:16;;;;;;;27.65;15.45;;;;;;;5.33;100.00;101227.28;4952451;29;20284;-79
2022/01/28 08:31:43;;;;;;;27.45;16.30;;;;;;;5.16;100.00;101236.34;4953105;29;20198;-79
2022/01/28 08:34:10;;;;;;;32.53;18.20;;;;;;;5.30;100.00;101236.22;4953069;29;20197;-78
2022/01/28 08:36:36;;;;;;;28.30;17.30;;;;;;;5.40;100.00;101239.66;4952804;29;20197;-78
2022/01/28 08:39:05;;;;;;;27.10;15.18;;;;;;;5.37;100.00;101231.69;4951488;29;20248;-77
2022/01/28 08:41:32;;;;;;;26.95;16.27;;;;;;;5.63;100.00;101237.63;4950370;29;20209;-79
2022/01/28 08:44:00;;;;;;;33.88;17.35;;;;;;;5.77;100.00;101239.25;4953031;29;20193;-79
2022/01/28 08:46:27;;;;;;;29.23;17.83;;;;;;;5.75;100.00;101247.28;4950771;29;20199;-78
2022/01/28 08:48:54;;;;;;;25.98;14.90;;;;;;;5.67;100.00;101248.28;4950608;29;20308;-79
2022/01/28 08:51:21;;;;;;;26.70;14.60;;;;;;;5.55;100.00;101247.50;4952515;29;20651;-80
2022/01/28 08:53:47;;;;;;;24.67;15.05;;;;;;;5.27;100.00;101248.69;4952772;29;20685;-79
2022/01/28 08:56:14;;;;;;;23.58;14.88;;;;;;;5.28;100.00;101254.03;4952462;28;20236;-77
2022/01/28 08:58:41;;;;;;;37.97;19.00;;;;;;;5.30;100.00;101256.69;4952463;29;20215;-80
2022/01/28 09:01:11;;;;;;;27.25;15.48;;;;;;;5.15;100.00;101263.06;4951658;29;20341;-77
2022/01/28 09:03:38;;;;;;;31.70;14.70;;;;;;;5.43;100.00;101259.22;4950796;29;20201;-77
2022/01/28 09:06:05;;;;;;;24.48;14.25;;;;;;;5.54;100.00;101256.44;4952880;29;20210;-77
2022/01/28 09:08:31;;;;;;;23.30;14.80;;;;;;;5.43;100.00;101267.25;4952603;29;20200;-78
2022/01/28 09:11:07;;;;;;;28.95;14.10;;;;;;;5.27;100.00;101267.41;4952145;28;20196;-78
2022/01/28 09:13:38;;;;;;;24.55;14.65;;;;;;;5.08;100.00;101267.56;4951813;29;20196;-77
2022/01/28 09:16:05;;;;;;;25.20;15.27;;;;;;;5.04;100.00;101272.94;4952354;29;20191;-77
2022/01/28 09:18:33;;;;;;;27.23;15.15;;;;;;;5.10;100.00;101276.47;4949166;29;20287;-77
2022/01/28 09:21:00;;;;;;;27.45;15.07;;;;;;;5.21;100.00;101290.59;4968834;28;20295;-81
2022/01/28 09:23:26;;;;;;;24.35;15.35;;;;;;;5.40;100.00;101288.66;4957169;28;20682;-76
2022/01/28 09:25:53;;;;;;;24.65;13.65;;;;;;;5.35;100.00;101294.94;4953565;29;20232;-77
2022/01/28 09:28:19;;;;;;;23.88;14.27;;;;;;;5.02;100.00;101289.00;4953922;29;20191;-77
2022/01/28 09:30:46;;;;;;;25.05;15.23;;;;;;;5.05;100.00;101291.66;4950510;28;20193;-77
2022/01/28 09:33:13;;;;;;;25.17;14.05;;;;;;;5.01;100.00;101292.56;4960064;28;20689;-77
2022/01/28 09:35:42;;;;;;;24.52;14.88;;;;;;;5.00;100.00;101298.81;4946831;29;20231;-78
2022/01/28 09:38:09;;;;;;;27.73;14.93;;;;;;;5.03;100.00;101304.13;4953461;29;20640;-77
2022/01/28 09:40:36;;;;;;;28.38;14.98;;;;;;;5.17;100.00;101306.66;4954621;28;20315;-76
2022/01/28 09:43:05;;;;;;;24.10;14.77;;;;;;;5.00;100.00;101310.38;4957138;29;20522;-77
2022/01/28 09:45:32;;;;;;;25.98;14.73;;;;;;;5.06;100.00;101309.41;4943361;29;20255;-77
2022/01/28 09:47:59;;;;;;;22.08;13.38;;;;;;;5.23;100.00;101311.97;4937749;29;20299;-78
2022/01/28 09:50:28;;;;;;;24.15;14.80;;;;;;;5.16;100.00;101310.25;4941592;29;20204;-78
2022/01/28 09:52:59;;;;;;;26.83;15.63;;;;;;;5.06;100.00;101312.09;4953679;29;20283;-78
2022/01/28 09:55:27;;;;;;;26.75;14.70;;;;;;;4.89;100.00;101317.56;4956130;28;20353;-78
2022/01/28 09:57:56;;;;;;;30.65;14.18;;;;;;;4.93;100.00;101311.31;4956669;29;20228;-77
2022/01/28 10:00:25;;;;;;;25.02;13.52;;;;;;;5.00;100.00;101304.16;4950871;29;20754;-77
2022/01/28 10:02:54;;;;;;;24.63;13.65;;;;;;;5.16;100.00;101310.25;4954953;29;20211;-78
2022/01/28 10:05:25;;;;;;;25.33;14.40;;;;;;;5.21;100.00;101306.63;4960480;29;20282;-77
2022/01/28 10:08:26;;;;;;;25.05;14.80;;;;;;;5.29;100.00;101314.59;4959527;29;20196;-77
2022/01/28 10:10:58;;;;;;;25.20;14.88;;;;;;;5.34;100.00;101314.56;4955238;29;20203;-77
2022/01/28 10:13:31;;;;;;;22.85;14.73;;;;;;;5.32;100.00;101324.34;4955357;29;20202;-77
2022/01/28 10:16:07;;;;;;;27.63;14.70;;;;;;;5.32;100.00;101319.91;4951156;29;20191;-77
2022/01/28 10:18:45;;;;;;;24.60;13.48;;;;;;;5.43;100.00;101314.47;4955429;29;20290;-77
2022/01/28 10:21:20;;;;;;;26.70;15.30;;;;;;;5.60;100.00;101323.16;4954675;29;20607;-76
2022/01/28 10:24:13;;;;;;;23.10;14.07;;;;;;;5.50;100.00;101313.50;4953154;29;20283;-77
2022/01/28 10:26:45;;;;;;;23.27;13.05;;;;;;;5.62;100.00;101310.69;4953408;29;20628;-78
2022/01/28 10:29:15;;;;;;;24.73;13.90;;;;;;;5.69;100.00;101316.84;4956620;28;20236;-77
2022/01/28 10:31:47;;;;;;;25.00;13.38;;;;;;;5.93;100.00;101313.03;4956920;29;20701;-79
2022/01/28 10:34:17;;;;;;;23.40;13.25;;;;;;;5.88;100.00;101308.63;4959385;28;20200;-77
2022/01/28 10:36:46;;;;;;;21.95;13.55;;;;;;;5.81;100.00;101315.81;4955050;29;20287;-77
2022/01/28 10:39:22;;;;;;;23.48;13.43;;;;;;;5.63;100.00;101322.25;4955509;29;20386;-79
2022/01/28 10:41:57;;;;;;;26.67;13.57;;;;;;;5.92;100.00;101318.38;4952685;29;20189;-77
2022/01/28 10:44:25;;;;;;;40.03;19.67;;;;;;;6.02;100.00;101318.28;4950599;29;20206;-78
2022/01/28 10:46:55;;;;;;;37.60;18.88;;;;;;;5.72;100.00;101315.94;4953772;29;20201;-77
2022/01/28 10:49:28;;;;;;;32.40;16.50;;;;;;;5.90;100.00;101315.75;4954745;29;20288;-78
2022/01/28 10:51:54;;;;;;;32.22;16.90;;;;;;;5.97;100.00;101316.56;4948280;28;20267;-78
2022/01/28 10:54:23;;;;;;;27.15;13.95;;;;;;;6.23;100.00;101311.78;4914257;28;64933;-78
2022/01/28 10:56:54;;;;;;;24.73;13.05;;;;;;;6.04;100.00;101312.94;4917359;29;20322;-78
2022/01/28 10:59:23;;;;;;;24.95;13.77;;;;;;;6.04;100.00;101315.63;4914365;29;20563;-78
2022/01/28 11:01:50;;;;;;;24.77;14.23;;;;;;;6.09;100.00;101307.53;4912901;29;20194;-78
2022/01/28 11:04:18;;;;;;;24.00;13.38;;;;;;;5.92;100.00;101303.22;4910245;29;20549;-79
2022/01/28 11:06:46;;;;;;;25.17;14.13;;;;;;;6.22;100.00;101301.13;4912763;29;20206;-79
2022/01/28 11:09:14;;;;;;;25.55;14.15;;;;;;;6.66;100.00;101289.78;4911559;29;20304;-79
2022/01/28 11:11:43;;;;;;;21.25;13.27;;;;;;;6.93;100.00;101276.88;4911492;29;20226;-79
2022/01/28 11:14:10;;;;;;;20.10;13.00;;;;;;;6.80;100.00;101268.13;4913427;29;20260;-77
2022/01/28 11:16:37;;;;;;;19.08;12.75;;;;;;;6.53;100.00;101281.97;4909608;29;20308;-79
2022/01/28 11:19:05;;;;;;;22.77;12.60;;;;;;;6.57;100.00;101291.72;4910748;29;20194;-81
2022/01/28 11:21:44;;;;;;;26.00;13.63;;;;;;;6.23;100.00;101297.53;4908295;29;20687;-77
2022/01/28 11:24:22;;;;;;;24.40;13.63;;;;;;;6.40;100.00;101298.19;4913278;29;20213;-79
2022/01/28 11:26:59;;;;;;;22.80;13.13;;;;;;;6.66;100.00;101294.25;4915268;29;20280;-80
2022/01/28 11:29:28;;;;;;;23.15;14.18;;;;;;;6.79;100.00;101293.16;4911934;29;20249;-78
2022/01/28 11:31:57;;;;;;;21.95;13.88;;;;;;;6.95;99.13;101290.25;4910519;29;20553;-79
2022/01/28 11:34:25;;;;;;;20.67;12.93;;;;;;;6.55;100.00;101297.09;4913470;29;20308;-78
2022/01/28 11:36:53;;;;;;;21.83;13.57;;;;;;;6.29;100.00;101307.25;4914601;29;20726;-80
2022/01/28 11:39:30;;;;;;;23.33;15.15;;;;;;;6.45;100.00;101307.03;4911770;29;20249;-79
2022/01/28 11:42:03;;;;;;;21.15;13.05;;;;;;;6.43;100.00;101298.16;4912136;29;20225;-79
2022/01/28 11:44:55;;;;;;;20.73;12.15;;;;;;;6.46;100.00;101290.06;4915785;29;20208;-80
2022/01/28 11:47:24;;;;;;;19.60;11.77;;;;;;;6.66;100.00;101283.53;4914735;29;20629;-80
2022/01/28 11:50:00;;;;;;;20.88;12.57;;;;;;;6.42;100.00;101282.09;4914403;29;20190;-80
2022/01/28 11:52:31;;;;;;;18.95;12.00;;;;;;;6.10;100.00;101287.91;4916410;29;20299;-80
2022/01/28 11:55:18;;;;;;;19.08;12.68;;;;;;;6.29;100.00;101286.75;4917613;29;20201;-80
2022/01/28 11:57:53;;;;;;;18.75;12.23;;;;;;;6.16;100.00;101293.19;4913040;29;20210;-82
2022/01/28 12:00:22;;;;;;;21.38;13.18;;;;;;;6.26;100.00;101289.44;4912136;29;20244;-80